• Join FlightAware (Why Join?)
  • Login
  • US Flag 
Trick or treat! (Boo!!) 
03:52AM EDT


 

Airport Tracker/Info


-or-


 

Live Flight TrackerFlight Track Log ✈ N237SR ✈ 19-Sep-2013 ✈ KSQL - KTRM

Flight Track Log - Related Links

Times and Time Zones

All times are in EDT time to prevent confusion due to time zone crossing. See the N237SR flight status page for this flight to view local times or setup timezone preferences in your user account.

Time Position Orientation Groundspeed Altitude Reporting Facility
EDT Latitude Longitude Course Direction KTS MPH feet Rate Location/Type
08:30PM 36.5219 -121.0392 142° Southeast 155 178 9,400  Level Los Angeles Center
08:31PM 36.4803 -120.9981 142° Southeast 158 182 9,400  Level Los Angeles Center
08:33PM 36.4456 -120.9656 143° Southeast 157 181 9,400  Level Los Angeles Center
08:34PM 36.4103 -120.9333 144° Southeast 159 183 9,400  Level Los Angeles Center
08:35PM 36.3683 -120.8936 143° Southeast 159 183 9,500  Climbing Oakland Center
08:36PM 36.3336 -120.8586 141° Southeast 160 184 9,500  Level Oakland Center
08:37PM 36.2986 -120.8264 143° Southeast 159 183 9,500  Level Oakland Center
08:38PM 36.2656 -120.7919 140° Southeast 156 180 9,500  Level Oakland Center
08:39PM 36.2311 -120.7594 143° Southeast 155 178 9,500  Level Oakland Center
08:40PM 36.1908 -120.7194 141° Southeast 156 180 9,500  Level Oakland Center
08:41PM 36.1575 -120.6875 142° Southeast 152 175 9,500 -60 Level Oakland Center
08:42PM 36.1217 -120.6558 144° Southeast 157 181 9,400  Descending Oakland Center
08:43PM 36.0828 -120.6292 151° Southeast 159 183 9,500  Climbing Oakland Center
08:44PM 36.0458 -120.6033 151° Southeast 155 178 9,400 -60 Descending Oakland Center
08:45PM 36.0086 -120.5739 147° Southeast 157 181 9,400  Level Oakland Center
08:46PM 35.9728 -120.5419 144° Southeast 158 182 9,400  Level Oakland Center
08:47PM 35.9367 -120.5111 145° Southeast 158 182 9,400 -60 Level Oakland Center
08:48PM 35.9011 -120.4831 147° Southeast 154 177 9,300 -60 Descending Oakland Center
08:49PM 35.8556 -120.4472 147° Southeast 159 183 9,300 -60 Level Oakland Center
08:50PM 35.8194 -120.4189 148° Southeast 157 181 9,200  Descending Oakland Center
08:51PM 35.7825 -120.3911 149° Southeast 156 180 9,300 60 Climbing Oakland Center
08:52PM 35.7469 -120.3647 149° Southeast 152 175 9,400  Climbing Oakland Center
08:53PM 35.7092 -120.3386 151° Southeast 153 176 9,400  Level Oakland Center
08:54PM 35.6722 -120.3106 148° Southeast 155 178 9,400  Level Oakland Center
08:55PM 35.6353 -120.2825 148° Southeast 155 178 9,400  Level Oakland Center
08:56PM 35.5972 -120.2547 149° Southeast 157 181 9,400  Level Oakland Center
08:57PM 35.5617 -120.2256 146° Southeast 155 178 9,400  Level Oakland Center
08:58PM 35.5244 -120.1972 148° Southeast 155 178 9,400  Level Oakland Center
08:59PM 35.4806 -120.1631 148° Southeast 155 178 9,400  Level Oakland Center
09:00PM 35.4439 -120.1342 147° Southeast 155 178 9,400  Level Oakland Center
09:01PM 35.4069 -120.1064 148° Southeast 155 178 9,400  Level Oakland Center
09:02PM 35.3922 -120.0953 148° Southeast 158 182 9,400  Level Los Angeles Center
09:03PM 35.3486 -120.0606 147° Southeast 156 180 9,400  Level Los Angeles Center
09:04PM 35.3069 -120.0297 149° Southeast 152 175 9,400  Level Los Angeles Center
09:05PM 35.2753 -120.0050 147° Southeast 154 177 9,400  Level Los Angeles Center
09:06PM 35.2308 -119.9717 149° Southeast 155 178 9,400  Level Los Angeles Center
09:07PM 35.1947 -119.9433 147° Southeast 154 177 9,400  Level Los Angeles Center
09:08PM 35.1586 -119.9178 150° Southeast 152 175 9,400  Level Los Angeles Center
09:09PM 35.1219 -119.8919 150° Southeast 152 175 9,500  Climbing Los Angeles Center
09:10PM 35.0869 -119.8650 148° Southeast 149 171 9,500  Level Los Angeles Center
09:11PM 35.0458 -119.8300 145° Southeast 150 173 9,500  Level Los Angeles Center
09:12PM 35.0100 -119.8031 148° Southeast 152 175 9,500  Level Los Angeles Center
09:13PM 34.9753 -119.7742 146° Southeast 152 175 9,500  Level Los Angeles Center
09:14PM 34.9414 -119.7442 144° Southeast 151 174 9,500  Level Los Angeles Center
09:15PM 34.9081 -119.7139 143° Southeast 150 173 9,500  Level Los Angeles Center
09:17PM 34.8742 -119.6850 145° Southeast 149 171 9,500  Level Los Angeles Center
09:18PM 34.8339 -119.6478 143° Southeast 151 174 9,500  Level Los Angeles Center
09:19PM 34.7997 -119.6175 144° Southeast 152 175 9,500  Level Los Angeles Center
09:20PM 34.7617 -119.5900 149° Southeast 155 178 9,500  Level Los Angeles Center
09:21PM 34.7233 -119.5606 148° Southeast 162 186 9,500  Level Los Angeles Center
09:22PM 34.6847 -119.5314 148° Southeast 164 189 9,500  Level Los Angeles Center
09:23PM 34.6489 -119.4969 142° Southeast 164 189 9,500  Level Los Angeles Center
09:24PM 34.6178 -119.4681 143° Southeast 162 186 9,500  Level Los Angeles Center
09:25PM 34.5758 -119.4289 142° Southeast 160 184 9,500  Level Los Angeles Center
09:26PM 34.5428 -119.3911 137° Southeast 164 189 9,500  Level Los Angeles Center
09:27PM 34.5089 -119.3392 128° Southeast 166 191 9,500  Level Los Angeles Center
09:28PM 34.4958 -119.2889 107° East 156 180 9,500  Level Los Angeles Center
09:29PM 34.4822 -119.2372 108° East 160 184 9,500  Level Los Angeles Center
09:30PM 34.4675 -119.1853 109° East 162 186 9,500  Level Los Angeles Center
09:31PM 34.4511 -119.1369 112° Southeast 157 181 9,500  Level Los Angeles Center
09:32PM 34.4347 -119.0861 111° Southeast 161 185 9,500  Level Los Angeles Center
09:33PM 34.4153 -119.0367 115° Southeast 163 188 9,500  Level Los Angeles Center
09:34PM 34.3911 -118.9786 117° Southeast 162 186 9,500  Level Los Angeles Center
09:35PM 34.3731 -118.9303 114° Southeast 158 182 9,500  Level Los Angeles Center
09:36PM 34.3594 -118.8772 107° East 164 189 9,500  Level Los Angeles Center
09:37PM 34.3397 -118.8178 112° Southeast 159 183 9,600  Climbing Los Angeles Center
09:38PM 34.3189 -118.7711 118° Southeast 158 182 9,500 -60 Descending Los Angeles Center
09:39PM 34.2978 -118.7247 119° Southeast 157 181 9,500  Level Los Angeles Center
09:40PM 34.2767 -118.6669 114° Southeast 157 181 9,500  Level Los Angeles Center
09:41PM 34.2608 -118.6181 111° Southeast 155 178 9,500  Level Los Angeles Center
09:42PM 34.2500 -118.5833 111° Southeast 156 180 9,500  Level Southern California TRACON
09:43PM 34.2333 -118.5333 112° Southeast 154 177 9,500  Level Southern California TRACON
09:44PM 34.2167 -118.4833 112° Southeast 153 176 9,500  Level Southern California TRACON
09:45PM 34.2000 -118.4333 112° Southeast 149 171 9,500  Level Southern California TRACON
09:46PM 34.1833 -118.3833 112° Southeast 158 182 9,500  Level Southern California TRACON
09:47PM 34.1842 -118.3719 85° East 157 181 9,500  Level Los Angeles Center
09:48PM 34.1661 -118.3142 111° Southeast 154 177 9,500  Level Los Angeles Center
09:49PM 34.1517 -118.2633 109° East 158 182 9,500  Level Los Angeles Center
09:50PM 34.1369 -118.2131 109° East 159 183 9,500  Level Los Angeles Center
09:51PM 34.1208 -118.1636 111° Southeast 158 182 9,500  Level Los Angeles Center
09:52PM 34.1036 -118.1022 109° East 160 184 9,600  Climbing Los Angeles Center
09:53PM 34.1036 -118.0603 90° East 161 185 9,500 -60 Descending Los Angeles Center
09:54PM 34.1033 -117.9964 90° East 158 182 9,500  Level Los Angeles Center
09:55PM 34.1044 -117.9350 89° East 159 183 9,500  Level Los Angeles Center
09:56PM 34.1000 -117.8833 96° East 160 184 9,500  Level Southern California TRACON
09:57PM 34.1000 -117.8167 90° East 162 186 9,500  Level Southern California TRACON
09:58PM 34.1000 -117.7667 90° East 162 186 9,500  Level Southern California TRACON
09:59PM 34.0833 -117.7167 112° Southeast 162 186 9,500  Level Southern California TRACON
10:00PM 34.0667 -117.6667 112° Southeast 155 178 9,500  Level Southern California TRACON
10:01PM 34.0667 -117.6167 90° East 163 188 9,500  Level Southern California TRACON
10:02PM 34.0500 -117.5667 112° Southeast 141 162 9,500  Level Southern California TRACON
10:03PM 34.0167 -117.5167 129° Southeast 155 178 9,500  Level Southern California TRACON
10:04PM 34.0000 -117.4667 112° Southeast 162 186 9,500  Level Southern California TRACON
10:05PM 33.9833 -117.4167 112° Southeast 165 190 9,500  Level Southern California TRACON
10:06PM 33.9667 -117.3667 112° Southeast 164 189 9,500  Level Southern California TRACON
10:07PM 33.9667 -117.3000 90° East 165 190 9,500  Level Southern California TRACON
10:08PM 33.9500 -117.2500 112° Southeast 166 191 9,500  Level Southern California TRACON
10:09PM 33.9500 -117.2000 90° East 167 192 9,500  Level Southern California TRACON
10:10PM 33.9333 -117.1333 107° East 170 196 9,500  Level Southern California TRACON
10:11PM 33.9333 -117.0833 90° East 168 193 9,500  Level Southern California TRACON
10:12PM 33.9167 -117.0333 112° Southeast 171 197 9,500  Level Southern California TRACON
10:13PM 33.9167 -116.9667 90° East 169 194 9,500  Level Southern California TRACON
10:14PM 33.9000 -116.9167 112° Southeast 169 194 9,500  Level Southern California TRACON
10:15PM 33.9017 -116.8728 87° East 169 194 9,500  Level Los Angeles Center
10:16PM 33.8928 -116.8053 99° East 170 196 9,500  Level Los Angeles Center
10:17PM 33.8881 -116.7492 96° East 169 194 9,500  Level Los Angeles Center
10:18PM 33.8825 -116.7003 98° East 172 198 9,500  Level Los Angeles Center
10:19PM 33.8747 -116.6356 98° East 171 197 9,500  Level Los Angeles Center
10:20PM 33.8625 -116.5814 105° East 170 196 9,500 -180 Level Los Angeles Center
10:21PM 33.8272 -116.5414 137° Southeast 173 199 9,200 -540 Descending Los Angeles Center
10:22PM 33.7986 -116.4914 125° Southeast 175 201 8,400 -900 Descending Los Angeles Center
10:24PM 33.7500 -116.3833 118° Southeast 164 189 6,600 -960 Descending Southern California TRACON
10:25PM 33.7258 -116.3525 133° Southeast 162 186 5,900 -540 Descending Los Angeles Center
10:26PM 33.6992 -116.3122 129° Southeast 159 183 5,700 -240 Descending Los Angeles Center